sensor_id;sensor_type;location;lat;lon;timestamp;P1;durP1;ratioP1;P2;durP2;ratioP2
37365;SDS011;23239;51.504;7.456;2024-01-06T00:00:00;8.6;;;7.7;;
37365;SDS011;23239;51.504;7.456;2024-01-06T00:01:00;8.6;;;7.7;;
37365;SDS011;23239;51.504;7.456;2024-01-06T00:02:00;8.6;;;7.7;;
37365;SDS011;23239;51.504;7.456;2024-01-06T00:03:00;8.6;;;7.7;;
37365;SDS011;23239;51.504;7.456;2024-01-06T00:04:00;7.7;;;6.7;;
37365;SDS011;23239;51.504;7.456;2024-01-06T00:05:00;7.7;;;6.7;;
37365;SDS011;23239;51.504;7.456;2024-01-06T00:06:00;7.7;;;6.7;;
37365;SDS011;23239;51.504;7.456;2024-01-06T00:07:00;7.7;;;6.7;;
37365;SDS011;23239;51.504;7.456;2024-01-06T00:08:00;7.7;;;6.7;;
37365;SDS011;23239;51.504;7.456;2024-01-06T00:09:00;7.5;;;6.7;;
37365;SDS011;23239;51.504;7.456;2024-01-06T00:10:00;7.5;;;6.7;;
37365;SDS011;23239;51.504;7.456;2024-01-06T00:11:00;7.5;;;6.7;;
37365;SDS011;23239;51.504;7.456;2024-01-06T00:12:00;7.5;;;6.7;;
37365;SDS011;23239;51.504;7.456;2024-01-06T00:13:00;7.5;;;6.7;;
37365;SDS011;23239;51.504;7.456;2024-01-06T00:14:00;8.6;;;7.0;;
37365;SDS011;23239;51.504;7.456;2024-01-06T00:15:00;8.6;;;7.0;;
37365;SDS011;23239;51.504;7.456;2024-01-06T00:16:00;8.6;;;7.0;;
37365;SDS011;23239;51.504;7.456;2024-01-06T00:17:00;8.6;;;7.0;;
37365;SDS011;23239;51.504;7.456;2024-01-06T00:18:00;8.6;;;7.0;;
37365;SDS011;23239;51.504;7.456;2024-01-06T00:19:00;8.5;;;7.2;;
37365;SDS011;23239;51.504;7.456;2024-01-06T00:20:00;8.5;;;7.2;;
37365;SDS011;23239;51.504;7.456;2024-01-06T00:21:00;8.5;;;7.2;;
37365;SDS011;23239;51.504;7.456;2024-01-06T00:22:00;8.5;;;7.2;;
37365;SDS011;23239;51.504;7.456;2024-01-06T00:23:00;8.5;;;7.2;;
37365;SDS011;23239;51.504;7.456;2024-01-06T00:24:00;9.1;;;7.9;;
37365;SDS011;23239;51.504;7.456;2024-01-06T00:25:00;9.1;;;7.9;;
37365;SDS011;23239;51.504;7.456;2024-01-06T00:26:00;9.1;;;7.9;;
37365;SDS011;23239;51.504;7.456;2024-01-06T00:27:00;9.1;;;7.9;;
37365;SDS011;23239;51.504;7.456;2024-01-06T00:28:00;9.1;;;7.9;;
37365;SDS011;23239;51.504;7.456;2024-01-06T00:29:00;8.6;;;7.7;;
37365;SDS011;23239;51.504;7.456;2024-01-06T00:30:00;8.6;;;7.7;;
37365;SDS011;23239;51.504;7.456;2024-01-06T00:31:00;8.6;;;7.7;;
37365;SDS011;23239;51.504;7.456;2024-01-06T00:32:00;8.6;;;7.7;;
37365;SDS011;23239;51.504;7.456;2024-01-06T00:33:00;8.6;;;7.7;;
37365;SDS011;23239;51.504;7.456;2024-01-06T00:34:00;8.9;;;7.9;;
37365;SDS011;23239;51.504;7.456;2024-01-06T00:35:00;8.9;;;7.9;;
37365;SDS011;23239;51.504;7.456;2024-01-06T00:36:00;8.9;;;7.9;;
37365;SDS011;23239;51.504;7.456;2024-01-06T00:37:00;8.9;;;7.9;;
37365;SDS011;23239;51.504;7.456;2024-01-06T00:38:00;8.9;;;7.9;;
37365;SDS011;23239;51.504;7.456;2024-01-06T00:39:00;9.9;;;8.2;;
37365;SDS011;23239;51.504;7.456;2024-01-06T00:40:00;9.9;;;8.2;;
37365;SDS011;23239;51.504;7.456;2024-01-06T00:41:00;9.9;;;8.2;;
37365;SDS011;23239;51.504;7.456;2024-01-06T00:42:00;9.9;;;8.2;;
37365;SDS011;23239;51.504;7.456;2024-01-06T00:43:00;9.9;;;8.2;;
37365;SDS011;23239;51.504;7.456;2024-01-06T00:44:00;11.1;;;9.7;;
37365;SDS011;23239;51.504;7.456;2024-01-06T00:45:00;11.1;;;9.7;;
37365;SDS011;23239;51.504;7.456;2024-01-06T00:46:00;11.1;;;9.7;;
37365;SDS011;23239;51.504;7.456;2024-01-06T00:47:00;11.1;;;9.7;;
37365;SDS011;23239;51.504;7.456;2024-01-06T00:48:00;11.1;;;9.7;;
37365;SDS011;23239;51.504;7.456;2024-01-06T00:49:00;9.6;;;8.6;;
37365;SDS011;23239;51.504;7.456;2024-01-06T00:50:00;9.6;;;8.6;;
37365;SDS011;23239;51.504;7.456;2024-01-06T00:51:00;9.6;;;8.6;;
37365;SDS011;23239;51.504;7.456;2024-01-06T00:52:00;9.6;;;8.6;;
37365;SDS011;23239;51.504;7.456;2024-01-06T00:53:00;9.6;;;8.6;;
37365;SDS011;23239;51.504;7.456;2024-01-06T00:54:00;10.0;;;8.9;;
37365;SDS011;23239;51.504;7.456;2024-01-06T00:55:00;10.0;;;8.9;;
37365;SDS011;23239;51.504;7.456;2024-01-06T00:56:00;10.0;;;8.9;;
37365;SDS011;23239;51.504;7.456;2024-01-06T00:57:00;10.0;;;8.9;;
37365;SDS011;23239;51.504;7.456;2024-01-06T00:58:00;10.0;;;8.9;;
37365;SDS011;23239;51.504;7.456;2024-01-06T00:59:00;11.0;;;9.4;;
37365;SDS011;23239;51.504;7.456;2024-01-06T01:00:00;11.0;;;9.4;;
37365;SDS011;23239;51.504;7.456;2024-01-06T01:01:00;11.0;;;9.4;;
37365;SDS011;23239;51.504;7.456;2024-01-06T01:02:00;11.0;;;9.4;;
37365;SDS011;23239;51.504;7.456;2024-01-06T01:03:00;11.0;;;9.4;;
37365;SDS011;23239;51.504;7.456;2024-01-06T01:04:00;12.5;;;10.0;;
37365;SDS011;23239;51.504;7.456;2024-01-06T01:05:00;12.5;;;10.0;;
37365;SDS011;23239;51.504;7.456;2024-01-06T01:06:00;12.5;;;10.0;;
37365;SDS011;23239;51.504;7.456;2024-01-06T01:07:00;12.5;;;10.0;;
37365;SDS011;23239;51.504;7.456;2024-01-06T01:08:00;12.5;;;10.0;;
37365;SDS011;23239;51.504;7.456;2024-01-06T01:09:00;11.5;;;10.2;;
37365;SDS011;23239;51.504;7.456;2024-01-06T01:10:00;11.5;;;10.2;;
37365;SDS011;23239;51.504;7.456;2024-01-06T01:11:00;11.5;;;10.2;;
37365;SDS011;23239;51.504;7.456;2024-01-06T01:12:00;11.5;;;10.2;;
37365;SDS011;23239;51.504;7.456;2024-01-06T01:13:00;11.5;;;10.2;;
37365;SDS011;23239;51.504;7.456;2024-01-06T01:14:00;12.4;;;10.5;;
37365;SDS011;23239;51.504;7.456;2024-01-06T01:15:00;12.4;;;10.5;;
37365;SDS011;23239;51.504;7.456;2024-01-06T01:16:00;12.4;;;10.5;;
37365;SDS011;23239;51.504;7.456;2024-01-06T01:17:00;12.4;;;10.5;;
37365;SDS011;23239;51.504;7.456;2024-01-06T01:18:00;12.4;;;10.5;;
37365;SDS011;23239;51.504;7.456;2024-01-06T01:19:00;13.5;;;11.4;;
37365;SDS011;23239;51.504;7.456;2024-01-06T01:20:00;13.5;;;11.4;;
37365;SDS011;23239;51.504;7.456;2024-01-06T01:21:00;13.5;;;11.4;;
37365;SDS011;23239;51.504;7.456;2024-01-06T01:22:00;13.5;;;11.4;;
37365;SDS011;23239;51.504;7.456;2024-01-06T01:23:00;13.5;;;11.4;;
37365;SDS011;23239;51.504;7.456;2024-01-06T01:24:00;12.2;;;10.9;;
37365;SDS011;23239;51.504;7.456;2024-01-06T01:25:00;12.2;;;10.9;;
37365;SDS011;23239;51.504;7.456;2024-01-06T01:26:00;12.2;;;10.9;;
37365;SDS011;23239;51.504;7.456;2024-01-06T01:27:00;12.2;;;10.9;;
37365;SDS011;23239;51.504;7.456;2024-01-06T01:28:00;12.2;;;10.9;;
37365;SDS011;23239;51.504;7.456;2024-01-06T01:29:00;12.9;;;9.6;;
37365;SDS011;23239;51.504;7.456;2024-01-06T01:30:00;12.9;;;9.6;;
37365;SDS011;23239;51.504;7.456;2024-01-06T01:31:00;12.9;;;9.6;;
37365;SDS011;23239;51.504;7.456;2024-01-06T01:32:00;12.9;;;9.6;;
37365;SDS011;23239;51.504;7.456;2024-01-06T01:33:00;12.9;;;9.6;;
37365;SDS011;23239;51.504;7.456;2024-01-06T01:34:00;12.9;;;10.9;;
37365;SDS011;23239;51.504;7.456;2024-01-06T01:35:00;12.9;;;10.9;;
37365;SDS011;23239;51.504;7.456;2024-01-06T01:36:00;12.9;;;10.9;;
37365;SDS011;23239;51.504;7.456;2024-01-06T01:37:00;12.9;;;10.9;;
37365;SDS011;23239;51.504;7.456;2024-01-06T01:38:00;12.9;;;10.9;;
37365;SDS011;23239;51.504;7.456;2024-01-06T01:39:00;12.0;;;10.5;;
37365;SDS011;23239;51.504;7.456;2024-01-06T01:40:00;12.0;;;10.5;;
37365;SDS011;23239;51.504;7.456;2024-01-06T01:41:00;12.0;;;10.5;;
37365;SDS011;23239;51.504;7.456;2024-01-06T01:42:00;12.0;;;10.5;;
37365;SDS011;23239;51.504;7.456;2024-01-06T01:43:00;12.0;;;10.5;;
37365;SDS011;23239;51.504;7.456;2024-01-06T01:44:00;13.3;;;10.4;;
37365;SDS011;23239;51.504;7.456;2024-01-06T01:45:00;13.3;;;10.4;;
37365;SDS011;23239;51.504;7.456;2024-01-06T01:46:00;13.3;;;10.4;;
37365;SDS011;23239;51.504;7.456;2024-01-06T01:47:03;13.3;;;10.4;;
37365;SDS011;23239;51.504;7.456;2024-01-06T01:48:00;13.3;;;10.4;;
37365;SDS011;23239;51.504;7.456;2024-01-06T01:49:00;13.3;;;11.1;;
37365;SDS011;23239;51.504;7.456;2024-01-06T01:50:00;13.3;;;11.1;;
37365;SDS011;23239;51.504;7.456;2024-01-06T01:51:00;13.3;;;11.1;;
37365;SDS011;23239;51.504;7.456;2024-01-06T01:52:00;13.3;;;11.1;;
37365;SDS011;23239;51.504;7.456;2024-01-06T01:53:00;13.3;;;11.1;;
37365;SDS011;23239;51.504;7.456;2024-01-06T01:54:00;13.1;;;10.9;;
37365;SDS011;23239;51.504;7.456;2024-01-06T01:55:00;13.1;;;10.9;;
37365;SDS011;23239;51.504;7.456;2024-01-06T01:56:00;13.1;;;10.9;;
37365;SDS011;23239;51.504;7.456;2024-01-06T01:57:00;13.1;;;10.9;;
37365;SDS011;23239;51.504;7.456;2024-01-06T01:58:00;13.1;;;10.9;;
37365;SDS011;23239;51.504;7.456;2024-01-06T01:59:00;12.4;;;10.9;;
37365;SDS011;23239;51.504;7.456;2024-01-06T02:00:00;12.4;;;10.9;;
37365;SDS011;23239;51.504;7.456;2024-01-06T02:01:00;12.4;;;10.9;;
37365;SDS011;23239;51.504;7.456;2024-01-06T02:02:00;12.4;;;10.9;;
37365;SDS011;23239;51.504;7.456;2024-01-06T02:03:00;12.4;;;10.9;;
37365;SDS011;23239;51.504;7.456;2024-01-06T02:04:00;14.6;;;11.4;;
37365;SDS011;23239;51.504;7.456;2024-01-06T02:05:00;14.6;;;11.4;;
37365;SDS011;23239;51.504;7.456;2024-01-06T02:06:00;14.6;;;11.4;;
37365;SDS011;23239;51.504;7.456;2024-01-06T02:07:00;14.6;;;11.4;;
37365;SDS011;23239;51.504;7.456;2024-01-06T02:08:00;14.6;;;11.4;;
37365;SDS011;23239;51.504;7.456;2024-01-06T02:09:00;12.8;;;10.8;;
37365;SDS011;23239;51.504;7.456;2024-01-06T02:10:00;12.8;;;10.8;;
37365;SDS011;23239;51.504;7.456;2024-01-06T02:11:00;12.8;;;10.8;;
37365;SDS011;23239;51.504;7.456;2024-01-06T02:12:00;12.8;;;10.8;;
37365;SDS011;23239;51.504;7.456;2024-01-06T02:13:07;12.8;;;10.8;;
37365;SDS011;23239;51.504;7.456;2024-01-06T02:14:00;13.2;;;11.1;;
37365;SDS011;23239;51.504;7.456;2024-01-06T02:15:00;13.2;;;11.1;;
37365;SDS011;23239;51.504;7.456;2024-01-06T02:16:00;13.2;;;11.1;;
37365;SDS011;23239;51.504;7.456;2024-01-06T02:17:00;13.2;;;11.1;;
37365;SDS011;23239;51.504;7.456;2024-01-06T02:18:00;13.2;;;11.1;;
37365;SDS011;23239;51.504;7.456;2024-01-06T02:19:00;14.3;;;11.5;;
37365;SDS011;23239;51.504;7.456;2024-01-06T02:20:00;14.3;;;11.5;;
37365;SDS011;23239;51.504;7.456;2024-01-06T02:21:00;14.3;;;11.5;;
37365;SDS011;23239;51.504;7.456;2024-01-06T02:22:00;14.3;;;11.5;;
37365;SDS011;23239;51.504;7.456;2024-01-06T02:23:00;14.3;;;11.5;;
37365;SDS011;23239;51.504;7.456;2024-01-06T02:24:00;14.7;;;11.4;;
37365;SDS011;23239;51.504;7.456;2024-01-06T02:25:00;14.7;;;11.4;;
37365;SDS011;23239;51.504;7.456;2024-01-06T02:26:00;14.7;;;11.4;;
37365;SDS011;23239;51.504;7.456;2024-01-06T02:27:00;14.7;;;11.4;;
37365;SDS011;23239;51.504;7.456;2024-01-06T02:28:00;14.7;;;11.4;;
37365;SDS011;23239;51.504;7.456;2024-01-06T02:29:00;14.1;;;11.7;;
37365;SDS011;23239;51.504;7.456;2024-01-06T02:30:00;14.1;;;11.7;;
37365;SDS011;23239;51.504;7.456;2024-01-06T02:31:00;14.1;;;11.7;;
37365;SDS011;23239;51.504;7.456;2024-01-06T02:32:00;14.1;;;11.7;;
37365;SDS011;23239;51.504;7.456;2024-01-06T02:33:00;14.1;;;11.7;;
37365;SDS011;23239;51.504;7.456;2024-01-06T02:34:00;14.6;;;11.1;;
37365;SDS011;23239;51.504;7.456;2024-01-06T02:35:00;14.6;;;11.1;;
37365;SDS011;23239;51.504;7.456;2024-01-06T02:36:00;14.6;;;11.1;;
37365;SDS011;23239;51.504;7.456;2024-01-06T02:37:00;14.6;;;11.1;;
37365;SDS011;23239;51.504;7.456;2024-01-06T02:38:00;14.6;;;11.1;;
37365;SDS011;23239;51.504;7.456;2024-01-06T02:39:00;15.3;;;11.4;;
37365;SDS011;23239;51.504;7.456;2024-01-06T02:40:00;15.3;;;11.4;;
37365;SDS011;23239;51.504;7.456;2024-01-06T02:41:00;15.3;;;11.4;;
37365;SDS011;23239;51.504;7.456;2024-01-06T02:42:00;15.3;;;11.4;;
37365;SDS011;23239;51.504;7.456;2024-01-06T02:43:00;15.3;;;11.4;;
37365;SDS011;23239;51.504;7.456;2024-01-06T02:44:00;17.3;;;12.7;;
37365;SDS011;23239;51.504;7.456;2024-01-06T02:45:00;17.3;;;12.7;;
37365;SDS011;23239;51.504;7.456;2024-01-06T02:46:00;17.3;;;12.7;;
37365;SDS011;23239;51.504;7.456;2024-01-06T02:47:00;17.3;;;12.7;;
37365;SDS011;23239;51.504;7.456;2024-01-06T02:48:00;17.3;;;12.7;;
37365;SDS011;23239;51.504;7.456;2024-01-06T02:49:00;14.4;;;10.9;;
37365;SDS011;23239;51.504;7.456;2024-01-06T02:50:00;14.4;;;10.9;;
37365;SDS011;23239;51.504;7.456;2024-01-06T02:51:00;14.4;;;10.9;;
37365;SDS011;23239;51.504;7.456;2024-01-06T02:52:00;14.4;;;10.9;;
37365;SDS011;23239;51.504;7.456;2024-01-06T02:53:00;14.4;;;10.9;;
37365;SDS011;23239;51.504;7.456;2024-01-06T02:54:00;12.0;;;10.1;;
37365;SDS011;23239;51.504;7.456;2024-01-06T02:55:00;12.0;;;10.1;;
37365;SDS011;23239;51.504;7.456;2024-01-06T02:56:00;12.0;;;10.1;;
37365;SDS011;23239;51.504;7.456;2024-01-06T02:57:00;12.0;;;10.1;;
37365;SDS011;23239;51.504;7.456;2024-01-06T02:58:00;12.0;;;10.1;;
37365;SDS011;23239;51.504;7.456;2024-01-06T02:59:00;13.3;;;10.7;;
37365;SDS011;23239;51.504;7.456;2024-01-06T03:00:00;13.3;;;10.7;;
37365;SDS011;23239;51.504;7.456;2024-01-06T03:01:00;13.3;;;10.7;;
37365;SDS011;23239;51.504;7.456;2024-01-06T03:02:00;13.3;;;10.7;;
37365;SDS011;23239;51.504;7.456;2024-01-06T03:03:00;13.3;;;10.7;;
37365;SDS011;23239;51.504;7.456;2024-01-06T03:04:00;13.6;;;10.6;;
37365;SDS011;23239;51.504;7.456;2024-01-06T03:05:00;13.6;;;10.6;;
37365;SDS011;23239;51.504;7.456;2024-01-06T03:06:00;13.6;;;10.6;;
37365;SDS011;23239;51.504;7.456;2024-01-06T03:07:00;13.6;;;10.6;;
37365;SDS011;23239;51.504;7.456;2024-01-06T03:08:00;13.6;;;10.6;;
37365;SDS011;23239;51.504;7.456;2024-01-06T03:09:00;13.6;;;10.6;;
37365;SDS011;23239;51.504;7.456;2024-01-06T03:10:00;13.6;;;10.6;;
37365;SDS011;23239;51.504;7.456;2024-01-06T03:11:00;13.6;;;10.6;;
37365;SDS011;23239;51.504;7.456;2024-01-06T03:12:00;13.6;;;10.6;;
37365;SDS011;23239;51.504;7.456;2024-01-06T03:13:00;13.6;;;10.6;;
37365;SDS011;23239;51.504;7.456;2024-01-06T03:14:00;12.2;;;10.4;;
37365;SDS011;23239;51.504;7.456;2024-01-06T03:15:00;12.2;;;10.4;;
37365;SDS011;23239;51.504;7.456;2024-01-06T03:16:02;12.2;;;10.4;;
37365;SDS011;23239;51.504;7.456;2024-01-06T03:17:00;12.2;;;10.4;;
37365;SDS011;23239;51.504;7.456;2024-01-06T03:18:00;12.2;;;10.4;;
37365;SDS011;23239;51.504;7.456;2024-01-06T03:19:00;13.7;;;10.5;;
37365;SDS011;23239;51.504;7.456;2024-01-06T03:20:00;13.7;;;10.5;;
37365;SDS011;23239;51.504;7.456;2024-01-06T03:21:00;13.7;;;10.5;;
37365;SDS011;23239;51.504;7.456;2024-01-06T03:22:00;13.7;;;10.5;;
37365;SDS011;23239;51.504;7.456;2024-01-06T03:23:00;13.7;;;10.5;;
37365;SDS011;23239;51.504;7.456;2024-01-06T03:24:00;14.4;;;12.0;;
37365;SDS011;23239;51.504;7.456;2024-01-06T03:25:00;14.4;;;12.0;;
37365;SDS011;23239;51.504;7.456;2024-01-06T03:26:04;14.4;;;12.0;;
37365;SDS011;23239;51.504;7.456;2024-01-06T03:27:00;14.4;;;12.0;;
37365;SDS011;23239;51.504;7.456;2024-01-06T03:28:00;14.4;;;12.0;;
37365;SDS011;23239;51.504;7.456;2024-01-06T03:29:00;18.5;;;14.1;;
37365;SDS011;23239;51.504;7.456;2024-01-06T03:30:00;18.5;;;14.1;;
37365;SDS011;23239;51.504;7.456;2024-01-06T03:31:00;18.5;;;14.1;;
37365;SDS011;23239;51.504;7.456;2024-01-06T03:32:00;18.5;;;14.1;;
37365;SDS011;23239;51.504;7.456;2024-01-06T03:33:00;18.5;;;14.1;;
37365;SDS011;23239;51.504;7.456;2024-01-06T03:34:00;17.9;;;13.9;;
37365;SDS011;23239;51.504;7.456;2024-01-06T03:35:00;17.9;;;13.9;;
37365;SDS011;23239;51.504;7.456;2024-01-06T03:36:03;17.9;;;13.9;;
37365;SDS011;23239;51.504;7.456;2024-01-06T03:37:00;17.9;;;13.9;;
37365;SDS011;23239;51.504;7.456;2024-01-06T03:38:00;17.9;;;13.9;;
37365;SDS011;23239;51.504;7.456;2024-01-06T03:39:00;21.3;;;14.6;;
37365;SDS011;23239;51.504;7.456;2024-01-06T03:40:00;21.3;;;14.6;;
37365;SDS011;23239;51.504;7.456;2024-01-06T03:41:00;21.3;;;14.6;;
37365;SDS011;23239;51.504;7.456;2024-01-06T03:42:00;21.3;;;14.6;;
37365;SDS011;23239;51.504;7.456;2024-01-06T03:43:00;21.3;;;14.6;;
37365;SDS011;23239;51.504;7.456;2024-01-06T03:44:00;20.1;;;14.9;;
37365;SDS011;23239;51.504;7.456;2024-01-06T03:45:00;20.1;;;14.9;;
37365;SDS011;23239;51.504;7.456;2024-01-06T03:46:00;20.1;;;14.9;;
37365;SDS011;23239;51.504;7.456;2024-01-06T03:47:00;20.1;;;14.9;;
37365;SDS011;23239;51.504;7.456;2024-01-06T03:48:00;20.1;;;14.9;;
37365;SDS011;23239;51.504;7.456;2024-01-06T03:49:00;20.6;;;14.8;;
37365;SDS011;23239;51.504;7.456;2024-01-06T03:50:00;20.6;;;14.8;;
37365;SDS011;23239;51.504;7.456;2024-01-06T03:51:00;20.6;;;14.8;;
37365;SDS011;23239;51.504;7.456;2024-01-06T03:52:00;20.6;;;14.8;;
37365;SDS011;23239;51.504;7.456;2024-01-06T03:53:00;20.6;;;14.8;;
37365;SDS011;23239;51.504;7.456;2024-01-06T03:54:00;20.6;;;15.1;;
37365;SDS011;23239;51.504;7.456;2024-01-06T03:55:00;20.6;;;15.1;;
37365;SDS011;23239;51.504;7.456;2024-01-06T03:56:00;20.6;;;15.1;;
37365;SDS011;23239;51.504;7.456;2024-01-06T03:57:00;20.6;;;15.1;;
37365;SDS011;23239;51.504;7.456;2024-01-06T03:58:00;20.6;;;15.1;;
37365;SDS011;23239;51.504;7.456;2024-01-06T03:59:00;19.4;;;14.0;;
37365;SDS011;23239;51.504;7.456;2024-01-06T04:00:00;19.4;;;14.0;;
37365;SDS011;23239;51.504;7.456;2024-01-06T04:01:00;19.4;;;14.0;;
37365;SDS011;23239;51.504;7.456;2024-01-06T04:02:00;19.4;;;14.0;;
37365;SDS011;23239;51.504;7.456;2024-01-06T04:03:00;19.4;;;14.0;;
37365;SDS011;23239;51.504;7.456;2024-01-06T04:04:00;18.1;;;13.5;;
37365;SDS011;23239;51.504;7.456;2024-01-06T04:05:00;18.1;;;13.5;;
37365;SDS011;23239;51.504;7.456;2024-01-06T04:06:00;18.1;;;13.5;;
37365;SDS011;23239;51.504;7.456;2024-01-06T04:07:00;18.1;;;13.5;;
37365;SDS011;23239;51.504;7.456;2024-01-06T04:08:00;18.1;;;13.5;;
37365;SDS011;23239;51.504;7.456;2024-01-06T04:09:00;18.1;;;13.5;;
37365;SDS011;23239;51.504;7.456;2024-01-06T04:10:00;18.4;;;13.4;;
37365;SDS011;23239;51.504;7.456;2024-01-06T04:11:00;18.4;;;13.4;;
37365;SDS011;23239;51.504;7.456;2024-01-06T04:12:00;18.4;;;13.4;;
37365;SDS011;23239;51.504;7.456;2024-01-06T04:13:00;18.4;;;13.4;;
37365;SDS011;23239;51.504;7.456;2024-01-06T04:14:00;18.4;;;13.4;;
37365;SDS011;23239;51.504;7.456;2024-01-06T04:15:00;17.5;;;12.9;;
37365;SDS011;23239;51.504;7.456;2024-01-06T04:16:00;17.5;;;12.9;;
37365;SDS011;23239;51.504;7.456;2024-01-06T04:17:00;17.5;;;12.9;;
37365;SDS011;23239;51.504;7.456;2024-01-06T04:18:01;17.5;;;12.9;;
37365;SDS011;23239;51.504;7.456;2024-01-06T04:19:00;17.5;;;12.9;;
37365;SDS011;23239;51.504;7.456;2024-01-06T04:20:00;17.9;;;12.9;;
37365;SDS011;23239;51.504;7.456;2024-01-06T04:21:00;17.9;;;12.9;;
37365;SDS011;23239;51.504;7.456;2024-01-06T04:22:00;17.9;;;12.9;;
37365;SDS011;23239;51.504;7.456;2024-01-06T04:23:00;17.9;;;12.9;;
37365;SDS011;23239;51.504;7.456;2024-01-06T04:24:00;17.9;;;12.9;;
37365;SDS011;23239;51.504;7.456;2024-01-06T04:25:00;16.7;;;11.9;;
37365;SDS011;23239;51.504;7.456;2024-01-06T04:26:00;16.7;;;11.9;;
37365;SDS011;23239;51.504;7.456;2024-01-06T04:27:00;16.7;;;11.9;;
37365;SDS011;23239;51.504;7.456;2024-01-06T04:28:00;16.7;;;11.9;;
37365;SDS011;23239;51.504;7.456;2024-01-06T04:29:00;16.7;;;11.9;;
37365;SDS011;23239;51.504;7.456;2024-01-06T04:30:00;17.7;;;12.7;;
37365;SDS011;23239;51.504;7.456;2024-01-06T04:31:00;17.7;;;12.7;;
37365;SDS011;23239;51.504;7.456;2024-01-06T04:32:00;17.7;;;12.7;;
37365;SDS011;23239;51.504;7.456;2024-01-06T04:33:00;17.7;;;12.7;;
37365;SDS011;23239;51.504;7.456;2024-01-06T04:34:00;17.7;;;12.7;;
37365;SDS011;23239;51.504;7.456;2024-01-06T04:35:00;16.9;;;11.9;;
37365;SDS011;23239;51.504;7.456;2024-01-06T04:36:00;16.9;;;11.9;;
37365;SDS011;23239;51.504;7.456;2024-01-06T04:37:00;16.9;;;11.9;;
37365;SDS011;23239;51.504;7.456;2024-01-06T04:38:00;16.9;;;11.9;;
37365;SDS011;23239;51.504;7.456;2024-01-06T04:39:00;16.9;;;11.9;;
37365;SDS011;23239;51.504;7.456;2024-01-06T04:40:00;17.8;;;11.9;;
37365;SDS011;23239;51.504;7.456;2024-01-06T04:41:00;17.8;;;11.9;;
37365;SDS011;23239;51.504;7.456;2024-01-06T04:42:00;17.8;;;11.9;;
37365;SDS011;23239;51.504;7.456;2024-01-06T04:43:00;17.8;;;11.9;;
37365;SDS011;23239;51.504;7.456;2024-01-06T04:44:00;17.8;;;11.9;;
37365;SDS011;23239;51.504;7.456;2024-01-06T04:45:00;17.3;;;11.8;;
37365;SDS011;23239;51.504;7.456;2024-01-06T04:46:00;17.3;;;11.8;;
37365;SDS011;23239;51.504;7.456;2024-01-06T04:47:00;17.3;;;11.8;;
37365;SDS011;23239;51.504;7.456;2024-01-06T04:48:00;17.3;;;11.8;;
37365;SDS011;23239;51.504;7.456;2024-01-06T04:49:00;17.3;;;11.8;;
37365;SDS011;23239;51.504;7.456;2024-01-06T04:50:00;18.5;;;12.2;;
37365;SDS011;23239;51.504;7.456;2024-01-06T04:51:00;18.5;;;12.2;;
37365;SDS011;23239;51.504;7.456;2024-01-06T04:52:00;18.5;;;12.2;;
37365;SDS011;23239;51.504;7.456;2024-01-06T04:53:00;18.5;;;12.2;;
37365;SDS011;23239;51.504;7.456;2024-01-06T04:54:00;18.5;;;12.2;;
37365;SDS011;23239;51.504;7.456;2024-01-06T04:55:00;19.0;;;12.6;;
37365;SDS011;23239;51.504;7.456;2024-01-06T04:56:00;19.0;;;12.6;;
37365;SDS011;23239;51.504;7.456;2024-01-06T04:57:00;19.0;;;12.6;;
37365;SDS011;23239;51.504;7.456;2024-01-06T04:58:00;19.0;;;12.6;;
37365;SDS011;23239;51.504;7.456;2024-01-06T04:59:00;19.0;;;12.6;;
37365;SDS011;23239;51.504;7.456;2024-01-06T05:00:00;19.3;;;12.5;;
37365;SDS011;23239;51.504;7.456;2024-01-06T05:01:00;19.3;;;12.5;;
37365;SDS011;23239;51.504;7.456;2024-01-06T05:02:00;19.3;;;12.5;;
37365;SDS011;23239;51.504;7.456;2024-01-06T05:03:00;19.3;;;12.5;;
37365;SDS011;23239;51.504;7.456;2024-01-06T05:04:00;19.3;;;12.5;;
37365;SDS011;23239;51.504;7.456;2024-01-06T05:05:00;18.2;;;12.7;;
37365;SDS011;23239;51.504;7.456;2024-01-06T05:06:00;18.2;;;12.7;;
37365;SDS011;23239;51.504;7.456;2024-01-06T05:07:00;18.2;;;12.7;;
37365;SDS011;23239;51.504;7.456;2024-01-06T05:08:00;18.2;;;12.7;;
37365;SDS011;23239;51.504;7.456;2024-01-06T05:09:00;18.2;;;12.7;;
37365;SDS011;23239;51.504;7.456;2024-01-06T05:10:00;18.3;;;12.1;;
37365;SDS011;23239;51.504;7.456;2024-01-06T05:11:00;18.3;;;12.1;;
37365;SDS011;23239;51.504;7.456;2024-01-06T05:12:00;18.3;;;12.1;;
37365;SDS011;23239;51.504;7.456;2024-01-06T05:13:00;18.3;;;12.1;;
37365;SDS011;23239;51.504;7.456;2024-01-06T05:14:00;18.3;;;12.1;;
37365;SDS011;23239;51.504;7.456;2024-01-06T05:15:00;20.3;;;13.7;;
37365;SDS011;23239;51.504;7.456;2024-01-06T05:16:00;20.3;;;13.7;;
37365;SDS011;23239;51.504;7.456;2024-01-06T05:17:00;20.3;;;13.7;;
37365;SDS011;23239;51.504;7.456;2024-01-06T05:18:00;20.3;;;13.7;;
37365;SDS011;23239;51.504;7.456;2024-01-06T05:19:00;20.3;;;13.7;;
37365;SDS011;23239;51.504;7.456;2024-01-06T05:20:00;20.1;;;13.9;;
37365;SDS011;23239;51.504;7.456;2024-01-06T05:21:00;20.1;;;13.9;;
37365;SDS011;23239;51.504;7.456;2024-01-06T05:22:00;20.1;;;13.9;;
37365;SDS011;23239;51.504;7.456;2024-01-06T05:23:00;20.1;;;13.9;;
37365;SDS011;23239;51.504;7.456;2024-01-06T05:24:00;20.1;;;13.9;;
37365;SDS011;23239;51.504;7.456;2024-01-06T05:25:00;21.3;;;14.4;;
37365;SDS011;23239;51.504;7.456;2024-01-06T05:26:00;21.3;;;14.4;;
37365;SDS011;23239;51.504;7.456;2024-01-06T05:27:00;21.3;;;14.4;;
37365;SDS011;23239;51.504;7.456;2024-01-06T05:28:00;21.3;;;14.4;;
37365;SDS011;23239;51.504;7.456;2024-01-06T05:29:00;21.3;;;14.4;;
37365;SDS011;23239;51.504;7.456;2024-01-06T05:30:00;21.7;;;14.0;;
37365;SDS011;23239;51.504;7.456;2024-01-06T05:31:00;21.7;;;14.0;;
37365;SDS011;23239;51.504;7.456;2024-01-06T05:32:00;21.7;;;14.0;;
37365;SDS011;23239;51.504;7.456;2024-01-06T05:33:00;21.7;;;14.0;;
37365;SDS011;23239;51.504;7.456;2024-01-06T05:34:00;21.7;;;14.0;;
37365;SDS011;23239;51.504;7.456;2024-01-06T05:35:00;20.6;;;14.2;;
37365;SDS011;23239;51.504;7.456;2024-01-06T05:36:00;20.6;;;14.2;;
37365;SDS011;23239;51.504;7.456;2024-01-06T05:37:00;20.6;;;14.2;;
37365;SDS011;23239;51.504;7.456;2024-01-06T05:38:00;20.6;;;14.2;;
37365;SDS011;23239;51.504;7.456;2024-01-06T05:39:00;20.6;;;14.2;;
37365;SDS011;23239;51.504;7.456;2024-01-06T05:40:00;20.5;;;13.9;;
37365;SDS011;23239;51.504;7.456;2024-01-06T05:41:00;20.5;;;13.9;;
37365;SDS011;23239;51.504;7.456;2024-01-06T05:42:00;20.5;;;13.9;;
37365;SDS011;23239;51.504;7.456;2024-01-06T05:43:00;20.5;;;13.9;;
37365;SDS011;23239;51.504;7.456;2024-01-06T05:44:00;20.5;;;13.9;;
37365;SDS011;23239;51.504;7.456;2024-01-06T05:45:00;20.2;;;13.9;;
37365;SDS011;23239;51.504;7.456;2024-01-06T05:46:00;20.2;;;13.9;;
37365;SDS011;23239;51.504;7.456;2024-01-06T05:47:00;20.2;;;13.9;;
37365;SDS011;23239;51.504;7.456;2024-01-06T05:48:00;20.2;;;13.9;;
37365;SDS011;23239;51.504;7.456;2024-01-06T05:49:00;20.2;;;13.9;;
37365;SDS011;23239;51.504;7.456;2024-01-06T05:50:00;21.0;;;14.6;;
37365;SDS011;23239;51.504;7.456;2024-01-06T05:51:00;21.0;;;14.6;;
37365;SDS011;23239;51.504;7.456;2024-01-06T05:52:00;21.0;;;14.6;;
37365;SDS011;23239;51.504;7.456;2024-01-06T05:53:00;21.0;;;14.6;;
37365;SDS011;23239;51.504;7.456;2024-01-06T05:54:00;21.0;;;14.6;;
37365;SDS011;23239;51.504;7.456;2024-01-06T05:55:00;21.6;;;15.6;;
37365;SDS011;23239;51.504;7.456;2024-01-06T05:56:00;21.6;;;15.6;;
37365;SDS011;23239;51.504;7.456;2024-01-06T05:57:00;21.6;;;15.6;;
37365;SDS011;23239;51.504;7.456;2024-01-06T05:58:00;21.6;;;15.6;;
37365;SDS011;23239;51.504;7.456;2024-01-06T05:59:00;21.6;;;15.6;;
37365;SDS011;23239;51.504;7.456;2024-01-06T06:00:00;22.6;;;15.9;;
37365;SDS011;23239;51.504;7.456;2024-01-06T06:01:00;22.6;;;15.9;;
37365;SDS011;23239;51.504;7.456;2024-01-06T06:02:00;22.6;;;15.9;;
37365;SDS011;23239;51.504;7.456;2024-01-06T06:03:00;22.6;;;15.9;;